sensor_id;sensor_type;location;lat;lon;timestamp;pressure;altitude;pressure_sealevel;temperature;humidity
13434;BME280;6789;47.678;9.158;2023-08-08T00:00:09;97073.41;;;12.50;100.00
13434;BME280;6789;47.678;9.158;2023-08-08T00:05:01;97075.09;;;12.45;100.00
13434;BME280;6789;47.678;9.158;2023-08-08T00:09:53;97077.63;;;12.40;100.00
13434;BME280;6789;47.678;9.158;2023-08-08T00:14:45;97076.31;;;12.31;100.00
13434;BME280;6789;47.678;9.158;2023-08-08T00:19:37;97079.75;;;12.20;100.00
13434;BME280;6789;47.678;9.158;2023-08-08T00:24:28;97081.59;;;12.31;100.00
13434;BME280;6789;47.678;9.158;2023-08-08T00:29:20;97079.63;;;12.15;100.00
13434;BME280;6789;47.678;9.158;2023-08-08T00:34:12;97077.78;;;12.15;100.00
13434;BME280;6789;47.678;9.158;2023-08-08T00:39:04;97068.31;;;12.14;100.00
13434;BME280;6789;47.678;9.158;2023-08-08T00:43:56;97065.09;;;12.12;100.00
13434;BME280;6789;47.678;9.158;2023-08-08T00:48:47;97056.84;;;12.09;100.00
13434;BME280;6789;47.678;9.158;2023-08-08T00:53:39;97058.13;;;12.07;100.00
13434;BME280;6789;47.678;9.158;2023-08-08T00:58:31;97052.50;;;12.03;100.00
13434;BME280;6789;47.678;9.158;2023-08-08T01:03:23;97045.06;;;12.00;100.00
13434;BME280;6789;47.678;9.158;2023-08-08T01:08:19;97050.66;;;11.92;100.00
13434;BME280;6789;47.678;9.158;2023-08-08T01:13:21;97058.06;;;11.84;100.00
13434;BME280;6789;47.678;9.158;2023-08-08T01:18:14;97052.66;;;11.79;100.00
13434;BME280;6789;47.678;9.158;2023-08-08T01:23:16;97046.56;;;11.67;100.00
13434;BME280;6789;47.678;9.158;2023-08-08T01:28:09;97046.41;;;11.62;100.00
13434;BME280;6789;47.678;9.158;2023-08-08T01:33:01;97041.53;;;11.47;100.00
13434;BME280;6789;47.678;9.158;2023-08-08T01:38:20;97041.84;;;11.39;100.00
13434;BME280;6789;47.678;9.158;2023-08-08T01:43:15;97051.84;;;11.31;100.00
13434;BME280;6789;47.678;9.158;2023-08-08T01:48:09;97052.34;;;11.22;100.00
13434;BME280;6789;47.678;9.158;2023-08-08T01:53:02;97060.81;;;11.41;100.00
13434;BME280;6789;47.678;9.158;2023-08-08T01:57:54;97055.88;;;11.16;100.00
13434;BME280;6789;47.678;9.158;2023-08-08T02:02:46;97064.25;;;11.06;100.00
13434;BME280;6789;47.678;9.158;2023-08-08T02:07:38;97051.03;;;10.95;100.00
13434;BME280;6789;47.678;9.158;2023-08-08T02:12:30;97054.16;;;10.85;100.00
13434;BME280;6789;47.678;9.158;2023-08-08T02:17:21;97054.97;;;10.68;100.00
13434;BME280;6789;47.678;9.158;2023-08-08T02:22:13;97044.53;;;10.62;100.00
13434;BME280;6789;47.678;9.158;2023-08-08T02:27:05;97053.63;;;10.59;100.00
13434;BME280;6789;47.678;9.158;2023-08-08T02:31:57;97047.00;;;10.57;100.00
13434;BME280;6789;47.678;9.158;2023-08-08T02:36:49;97045.03;;;10.52;100.00
13434;BME280;6789;47.678;9.158;2023-08-08T02:41:41;97047.88;;;10.51;100.00
13434;BME280;6789;47.678;9.158;2023-08-08T02:46:34;97053.19;;;10.44;100.00
13434;BME280;6789;47.678;9.158;2023-08-08T02:51:26;97051.41;;;10.38;100.00
13434;BME280;6789;47.678;9.158;2023-08-08T02:56:17;97044.56;;;10.37;100.00
13434;BME280;6789;47.678;9.158;2023-08-08T03:01:09;97046.97;;;10.39;100.00
13434;BME280;6789;47.678;9.158;2023-08-08T03:06:03;97046.44;;;10.30;100.00
13434;BME280;6789;47.678;9.158;2023-08-08T03:10:55;97046.47;;;10.24;100.00
13434;BME280;6789;47.678;9.158;2023-08-08T03:15:46;97047.53;;;10.23;100.00
13434;BME280;6789;47.678;9.158;2023-08-08T03:20:38;97045.53;;;10.18;100.00
13434;BME280;6789;47.678;9.158;2023-08-08T03:25:30;97042.53;;;10.15;100.00
13434;BME280;6789;47.678;9.158;2023-08-08T03:30:22;97050.63;;;10.13;100.00
13434;BME280;6789;47.678;9.158;2023-08-08T03:35:14;97045.78;;;10.10;100.00
13434;BME280;6789;47.678;9.158;2023-08-08T03:40:07;97045.41;;;10.07;100.00
13434;BME280;6789;47.678;9.158;2023-08-08T03:44:59;97039.63;;;9.98;100.00
13434;BME280;6789;47.678;9.158;2023-08-08T03:49:51;97037.63;;;9.94;100.00
13434;BME280;6789;47.678;9.158;2023-08-08T03:54:46;97041.63;;;9.96;100.00
13434;BME280;6789;47.678;9.158;2023-08-08T03:59:38;97045.09;;;9.97;100.00
13434;BME280;6789;47.678;9.158;2023-08-08T04:04:30;97046.03;;;10.02;100.00
13434;BME280;6789;47.678;9.158;2023-08-08T04:09:22;97049.47;;;10.03;100.00
13434;BME280;6789;47.678;9.158;2023-08-08T04:14:14;97050.34;;;9.97;100.00
13434;BME280;6789;47.678;9.158;2023-08-08T04:19:07;97064.81;;;9.99;100.00
13434;BME280;6789;47.678;9.158;2023-08-08T04:24:00;97069.06;;;10.00;100.00
13434;BME280;6789;47.678;9.158;2023-08-08T04:28:53;97066.38;;;10.07;100.00
13434;BME280;6789;47.678;9.158;2023-08-08T04:33:55;97075.72;;;10.45;100.00
13434;BME280;6789;47.678;9.158;2023-08-08T04:38:53;97074.72;;;11.42;100.00
13434;BME280;6789;47.678;9.158;2023-08-08T04:43:45;97062.88;;;12.50;100.00
13434;BME280;6789;47.678;9.158;2023-08-08T04:48:41;97052.34;;;13.86;98.36
13434;BME280;6789;47.678;9.158;2023-08-08T04:53:42;97052.88;;;15.57;84.98
13434;BME280;6789;47.678;9.158;2023-08-08T04:58:34;97053.50;;;16.79;76.57
13434;BME280;6789;47.678;9.158;2023-08-08T05:03:28;97060.13;;;17.22;72.79
13434;BME280;6789;47.678;9.158;2023-08-08T05:08:20;97057.31;;;17.29;72.91
13434;BME280;6789;47.678;9.158;2023-08-08T05:13:13;97051.09;;;17.75;71.15
13434;BME280;6789;47.678;9.158;2023-08-08T05:18:05;97056.69;;;17.73;70.28
13434;BME280;6789;47.678;9.158;2023-08-08T05:23:10;97053.63;;;17.40;70.79
13434;BME280;6789;47.678;9.158;2023-08-08T05:28:03;97061.13;;;17.07;73.05
13434;BME280;6789;47.678;9.158;2023-08-08T05:32:55;97063.38;;;16.88;74.24
13434;BME280;6789;47.678;9.158;2023-08-08T05:37:47;97062.44;;;17.50;71.76
13434;BME280;6789;47.678;9.158;2023-08-08T05:42:39;97057.03;;;17.96;70.38
13434;BME280;6789;47.678;9.158;2023-08-08T05:47:32;97060.97;;;17.89;70.42
13434;BME280;6789;47.678;9.158;2023-08-08T05:52:30;97057.81;;;18.02;70.65
13434;BME280;6789;47.678;9.158;2023-08-08T05:57:22;97065.59;;;18.93;68.27
13434;BME280;6789;47.678;9.158;2023-08-08T06:02:14;97052.50;;;19.99;64.36
13434;BME280;6789;47.678;9.158;2023-08-08T06:07:06;97050.94;;;20.70;61.07
13434;BME280;6789;47.678;9.158;2023-08-08T06:12:00;97044.31;;;21.24;58.43
13434;BME280;6789;47.678;9.158;2023-08-08T06:16:53;97044.41;;;21.14;58.75
13434;BME280;6789;47.678;9.158;2023-08-08T06:21:48;97046.19;;;20.95;58.11
13434;BME280;6789;47.678;9.158;2023-08-08T06:26:40;97045.47;;;20.89;58.46
13434;BME280;6789;47.678;9.158;2023-08-08T06:31:33;97037.31;;;20.76;58.67
13434;BME280;6789;47.678;9.158;2023-08-08T06:36:26;97043.22;;;19.92;58.98
13434;BME280;6789;47.678;9.158;2023-08-08T06:41:32;97053.59;;;19.20;60.90
13434;BME280;6789;47.678;9.158;2023-08-08T06:46:25;97046.66;;;19.29;61.24
13434;BME280;6789;47.678;9.158;2023-08-08T06:51:31;97044.06;;;18.84;62.51
13434;BME280;6789;47.678;9.158;2023-08-08T06:56:24;97034.50;;;18.88;62.36
13434;BME280;6789;47.678;9.158;2023-08-08T07:01:21;97038.25;;;18.87;62.26
13434;BME280;6789;47.678;9.158;2023-08-08T07:06:27;97034.00;;;18.71;63.07
13434;BME280;6789;47.678;9.158;2023-08-08T07:11:19;97026.19;;;19.25;61.03
13434;BME280;6789;47.678;9.158;2023-08-08T07:16:26;97025.44;;;19.14;62.33
13434;BME280;6789;47.678;9.158;2023-08-08T07:21:18;97023.41;;;19.59;60.38
13434;BME280;6789;47.678;9.158;2023-08-08T07:26:19;97019.03;;;19.78;59.49
13434;BME280;6789;47.678;9.158;2023-08-08T07:31:11;97011.41;;;20.15;59.23
13434;BME280;6789;47.678;9.158;2023-08-08T07:36:04;97008.75;;;20.48;58.51
13434;BME280;6789;47.678;9.158;2023-08-08T07:40:57;96997.44;;;20.61;56.87
13434;BME280;6789;47.678;9.158;2023-08-08T07:45:49;97003.19;;;20.78;56.77
13434;BME280;6789;47.678;9.158;2023-08-08T07:50:42;97000.31;;;20.36;57.98
13434;BME280;6789;47.678;9.158;2023-08-08T07:55:34;96998.78;;;20.25;57.93
13434;BME280;6789;47.678;9.158;2023-08-08T08:00:26;96994.44;;;20.39;57.80
13434;BME280;6789;47.678;9.158;2023-08-08T08:05:20;96991.88;;;20.58;56.76
13434;BME280;6789;47.678;9.158;2023-08-08T08:10:14;96987.56;;;20.62;57.39
13434;BME280;6789;47.678;9.158;2023-08-08T08:15:10;96981.94;;;20.63;57.60
13434;BME280;6789;47.678;9.158;2023-08-08T08:20:05;96975.84;;;20.91;56.27
13434;BME280;6789;47.678;9.158;2023-08-08T08:25:01;96982.53;;;20.88;55.43
13434;BME280;6789;47.678;9.158;2023-08-08T08:29:53;96975.38;;;20.56;57.04
13434;BME280;6789;47.678;9.158;2023-08-08T08:34:46;96975.31;;;20.61;57.54
13434;BME280;6789;47.678;9.158;2023-08-08T08:39:51;96969.59;;;20.77;58.24
13434;BME280;6789;47.678;9.158;2023-08-08T08:44:45;96969.19;;;21.12;56.06
13434;BME280;6789;47.678;9.158;2023-08-08T08:49:41;96951.44;;;21.02;56.39
13434;BME280;6789;47.678;9.158;2023-08-08T08:54:38;96960.59;;;21.61;55.94
13434;BME280;6789;47.678;9.158;2023-08-08T08:59:44;96961.31;;;22.04;54.29
13434;BME280;6789;47.678;9.158;2023-08-08T09:04:37;96962.31;;;22.08;53.27
13434;BME280;6789;47.678;9.158;2023-08-08T09:09:32;96955.41;;;22.07;53.07
13434;BME280;6789;47.678;9.158;2023-08-08T09:14:26;96965.72;;;22.31;51.29
13434;BME280;6789;47.678;9.158;2023-08-08T09:19:20;96960.09;;;22.33;52.09
13434;BME280;6789;47.678;9.158;2023-08-08T09:24:14;96948.88;;;22.63;51.95
13434;BME280;6789;47.678;9.158;2023-08-08T09:29:10;96948.41;;;23.01;49.49
13434;BME280;6789;47.678;9.158;2023-08-08T09:34:07;96951.72;;;23.38;49.27
13434;BME280;6789;47.678;9.158;2023-08-08T09:39:00;96940.84;;;23.83;48.12
13434;BME280;6789;47.678;9.158;2023-08-08T09:43:54;96947.06;;;23.44;48.47
13434;BME280;6789;47.678;9.158;2023-08-08T09:48:46;96931.94;;;23.61;47.98
13434;BME280;6789;47.678;9.158;2023-08-08T09:53:39;96933.69;;;23.79;47.22
13434;BME280;6789;47.678;9.158;2023-08-08T09:58:34;96927.84;;;23.15;48.13
13434;BME280;6789;47.678;9.158;2023-08-08T10:03:27;96939.81;;;22.91;47.15
13434;BME280;6789;47.678;9.158;2023-08-08T10:08:34;96933.94;;;22.89;47.71
13434;BME280;6789;47.678;9.158;2023-08-08T10:13:35;96932.97;;;22.98;46.81
13434;BME280;6789;47.678;9.158;2023-08-08T10:18:43;96927.84;;;23.02;47.28
13434;BME280;6789;47.678;9.158;2023-08-08T10:23:49;96923.28;;;23.02;45.90
13434;BME280;6789;47.678;9.158;2023-08-08T10:28:57;96928.84;;;23.19;46.18
13434;BME280;6789;47.678;9.158;2023-08-08T10:34:03;96914.88;;;23.57;46.28
13434;BME280;6789;47.678;9.158;2023-08-08T10:38:58;96914.84;;;23.84;43.52
13434;BME280;6789;47.678;9.158;2023-08-08T10:43:57;96908.81;;;23.65;42.72
13434;BME280;6789;47.678;9.158;2023-08-08T10:49:05;96913.16;;;23.39;41.75
13434;BME280;6789;47.678;9.158;2023-08-08T10:54:24;96912.19;;;23.08;44.28
13434;BME280;6789;47.678;9.158;2023-08-08T10:59:24;96909.41;;;23.13;43.45
13434;BME280;6789;47.678;9.158;2023-08-08T11:04:23;96901.69;;;23.12;43.19
13434;BME280;6789;47.678;9.158;2023-08-08T11:09:22;96894.00;;;23.32;43.56
13434;BME280;6789;47.678;9.158;2023-08-08T11:14:20;96884.16;;;23.41;45.85
13434;BME280;6789;47.678;9.158;2023-08-08T11:19:14;96883.50;;;23.71;42.64
13434;BME280;6789;47.678;9.158;2023-08-08T11:24:09;96882.50;;;24.24;43.14
13434;BME280;6789;47.678;9.158;2023-08-08T11:29:04;96880.22;;;24.40;41.80
13434;BME280;6789;47.678;9.158;2023-08-08T11:33:59;96875.97;;;24.17;41.94
13434;BME280;6789;47.678;9.158;2023-08-08T11:38:54;96872.75;;;24.28;40.68
13434;BME280;6789;47.678;9.158;2023-08-08T11:43:47;96864.03;;;24.45;40.09
13434;BME280;6789;47.678;9.158;2023-08-08T11:48:54;96870.34;;;24.48;38.73
13434;BME280;6789;47.678;9.158;2023-08-08T11:53:51;96865.66;;;24.02;38.83
13434;BME280;6789;47.678;9.158;2023-08-08T11:58:43;96854.25;;;23.96;40.96
13434;BME280;6789;47.678;9.158;2023-08-08T12:03:39;96836.00;;;24.59;39.43
13434;BME280;6789;47.678;9.158;2023-08-08T12:08:31;96849.31;;;24.72;37.88
13434;BME280;6789;47.678;9.158;2023-08-08T12:13:24;96860.97;;;24.38;37.76
13434;BME280;6789;47.678;9.158;2023-08-08T12:18:24;96850.16;;;24.21;37.57
13434;BME280;6789;47.678;9.158;2023-08-08T12:23:16;96858.53;;;24.28;37.84
13434;BME280;6789;47.678;9.158;2023-08-08T12:28:08;96850.84;;;24.35;38.06
13434;BME280;6789;47.678;9.158;2023-08-08T12:33:14;96848.69;;;24.15;39.89
13434;BME280;6789;47.678;9.158;2023-08-08T12:38:06;96841.66;;;24.27;39.25
13434;BME280;6789;47.678;9.158;2023-08-08T12:42:58;96837.84;;;24.20;40.27
13434;BME280;6789;47.678;9.158;2023-08-08T12:48:04;96842.19;;;24.38;39.12
13434;BME280;6789;47.678;9.158;2023-08-08T12:52:56;96853.69;;;24.38;38.66
13434;BME280;6789;47.678;9.158;2023-08-08T12:57:48;96842.34;;;24.33;37.23
13434;BME280;6789;47.678;9.158;2023-08-08T13:02:50;96844.25;;;24.41;37.51
13434;BME280;6789;47.678;9.158;2023-08-08T13:07:45;96843.38;;;24.53;37.35
13434;BME280;6789;47.678;9.158;2023-08-08T13:12:42;96831.53;;;24.85;37.07
13434;BME280;6789;47.678;9.158;2023-08-08T13:17:34;96828.47;;;25.25;36.54
13434;BME280;6789;47.678;9.158;2023-08-08T13:22:40;96825.97;;;25.54;36.22
13434;BME280;6789;47.678;9.158;2023-08-08T13:27:38;96827.88;;;25.70;35.71
13434;BME280;6789;47.678;9.158;2023-08-08T13:32:30;96824.25;;;25.58;35.67
13434;BME280;6789;47.678;9.158;2023-08-08T13:37:23;96822.50;;;25.45;36.17
13434;BME280;6789;47.678;9.158;2023-08-08T13:42:20;96814.34;;;24.94;37.29
13434;BME280;6789;47.678;9.158;2023-08-08T13:47:13;96818.66;;;25.12;37.28
13434;BME280;6789;47.678;9.158;2023-08-08T13:52:08;96826.34;;;24.97;37.91
13434;BME280;6789;47.678;9.158;2023-08-08T13:57:03;96808.97;;;24.94;37.54
13434;BME280;6789;47.678;9.158;2023-08-08T14:01:56;96816.81;;;24.74;38.61
13434;BME280;6789;47.678;9.158;2023-08-08T14:06:49;96801.69;;;24.95;38.65
13434;BME280;6789;47.678;9.158;2023-08-08T14:11:55;96797.50;;;25.11;37.68
13434;BME280;6789;47.678;9.158;2023-08-08T14:16:49;96805.97;;;25.04;38.23
13434;BME280;6789;47.678;9.158;2023-08-08T14:21:44;96805.47;;;24.94;38.58
13434;BME280;6789;47.678;9.158;2023-08-08T14:26:45;96808.84;;;24.52;38.83
13434;BME280;6789;47.678;9.158;2023-08-08T14:31:53;96799.59;;;24.36;39.71
13434;BME280;6789;47.678;9.158;2023-08-08T14:37:00;96809.88;;;24.12;41.79
13434;BME280;6789;47.678;9.158;2023-08-08T14:41:53;96789.94;;;24.27;41.04
13434;BME280;6789;47.678;9.158;2023-08-08T14:46:46;96802.75;;;24.38;41.50
13434;BME280;6789;47.678;9.158;2023-08-08T14:51:38;96808.72;;;24.05;40.95
13434;BME280;6789;47.678;9.158;2023-08-08T14:56:30;96801.56;;;23.70;41.25
13434;BME280;6789;47.678;9.158;2023-08-08T15:01:23;96802.53;;;23.74;41.12
13434;BME280;6789;47.678;9.158;2023-08-08T15:06:15;96801.19;;;23.63;41.20
13434;BME280;6789;47.678;9.158;2023-08-08T15:11:10;96802.22;;;23.75;41.29
13434;BME280;6789;47.678;9.158;2023-08-08T15:16:17;96809.22;;;23.63;38.34
13434;BME280;6789;47.678;9.158;2023-08-08T15:21:10;96808.84;;;23.34;38.96
13434;BME280;6789;47.678;9.158;2023-08-08T15:26:14;96803.84;;;23.41;40.13
13434;BME280;6789;47.678;9.158;2023-08-08T15:31:10;96802.69;;;23.34;39.89
13434;BME280;6789;47.678;9.158;2023-08-08T15:36:02;96801.72;;;23.16;39.67
13434;BME280;6789;47.678;9.158;2023-08-08T15:40:54;96802.91;;;23.24;39.74
13434;BME280;6789;47.678;9.158;2023-08-08T15:45:46;96795.94;;;23.36;39.50
13434;BME280;6789;47.678;9.158;2023-08-08T15:50:38;96793.75;;;23.38;40.49
13434;BME280;6789;47.678;9.158;2023-08-08T15:55:32;96788.25;;;23.43;40.45
13434;BME280;6789;47.678;9.158;2023-08-08T16:00:25;96780.66;;;23.37;40.45
13434;BME280;6789;47.678;9.158;2023-08-08T16:05:21;96785.22;;;23.36;41.36
13434;BME280;6789;47.678;9.158;2023-08-08T16:10:26;96784.78;;;23.21;42.14
13434;BME280;6789;47.678;9.158;2023-08-08T16:15:19;96775.59;;;23.13;41.90
13434;BME280;6789;47.678;9.158;2023-08-08T16:20:12;96781.69;;;23.27;42.67
13434;BME280;6789;47.678;9.158;2023-08-08T16:25:04;96785.22;;;23.36;43.07
13434;BME280;6789;47.678;9.158;2023-08-08T16:29:59;96784.47;;;23.22;43.18
13434;BME280;6789;47.678;9.158;2023-08-08T16:34:55;96792.53;;;23.09;43.58
13434;BME280;6789;47.678;9.158;2023-08-08T16:39:50;96789.88;;;23.09;43.44
13434;BME280;6789;47.678;9.158;2023-08-08T16:44:42;96776.38;;;23.14;44.09
13434;BME280;6789;47.678;9.158;2023-08-08T16:49:48;96788.47;;;23.11;43.53
13434;BME280;6789;47.678;9.158;2023-08-08T16:54:40;96795.59;;;23.16;43.19
13434;BME280;6789;47.678;9.158;2023-08-08T16:59:32;96794.44;;;23.08;43.75
13434;BME280;6789;47.678;9.158;2023-08-08T17:04:24;96797.81;;;22.87;43.82
13434;BME280;6789;47.678;9.158;2023-08-08T17:09:16;96794.22;;;22.92;44.09
13434;BME280;6789;47.678;9.158;2023-08-08T17:14:09;96793.38;;;22.69;44.33
13434;BME280;6789;47.678;9.158;2023-08-08T17:19:02;96801.38;;;22.56;45.33
13434;BME280;6789;47.678;9.158;2023-08-08T17:23:55;96799.78;;;22.28;45.61
13434;BME280;6789;47.678;9.158;2023-08-08T17:28:47;96799.84;;;22.23;46.56
13434;BME280;6789;47.678;9.158;2023-08-08T17:33:41;96801.63;;;22.14;46.74
13434;BME280;6789;47.678;9.158;2023-08-08T17:38:37;96806.88;;;22.06;47.41
13434;BME280;6789;47.678;9.158;2023-08-08T17:43:29;96815.94;;;21.91;47.70
13434;BME280;6789;47.678;9.158;2023-08-08T17:48:32;96818.34;;;21.74;48.51
13434;BME280;6789;47.678;9.158;2023-08-08T17:53:25;96822.44;;;21.54;49.33
13434;BME280;6789;47.678;9.158;2023-08-08T17:58:18;96817.59;;;21.37;49.07
13434;BME280;6789;47.678;9.158;2023-08-08T18:03:10;96820.75;;;21.21;49.50
13434;BME280;6789;47.678;9.158;2023-08-08T18:08:03;96822.84;;;21.05;49.65
13434;BME280;6789;47.678;9.158;2023-08-08T18:12:57;96825.13;;;20.93;49.65
13434;BME280;6789;47.678;9.158;2023-08-08T18:17:48;96825.84;;;20.81;50.07
13434;BME280;6789;47.678;9.158;2023-08-08T18:22:40;96826.56;;;20.63;50.32
13434;BME280;6789;47.678;9.158;2023-08-08T18:27:33;96821.41;;;20.48;50.68
13434;BME280;6789;47.678;9.158;2023-08-08T18:32:26;96830.66;;;20.32;51.14
13434;BME280;6789;47.678;9.158;2023-08-08T18:37:19;96833.50;;;20.12;51.96
13434;BME280;6789;47.678;9.158;2023-08-08T18:42:11;96843.97;;;20.04;52.15
13434;BME280;6789;47.678;9.158;2023-08-08T18:47:03;96845.66;;;19.90;52.93
13434;BME280;6789;47.678;9.158;2023-08-08T18:51:56;96849.53;;;19.74;53.21
13434;BME280;6789;47.678;9.158;2023-08-08T18:56:55;96850.19;;;19.56;54.15
13434;BME280;6789;47.678;9.158;2023-08-08T19:01:47;96852.63;;;19.47;54.66
13434;BME280;6789;47.678;9.158;2023-08-08T19:06:40;96856.16;;;19.43;55.30
13434;BME280;6789;47.678;9.158;2023-08-08T19:11:32;96856.75;;;19.30;56.27
13434;BME280;6789;47.678;9.158;2023-08-08T19:16:38;96854.22;;;19.10;56.99
13434;BME280;6789;47.678;9.158;2023-08-08T19:21:56;96851.31;;;19.02;57.80
13434;BME280;6789;47.678;9.158;2023-08-08T19:26:49;96852.69;;;18.94;58.46
13434;BME280;6789;47.678;9.158;2023-08-08T19:31:52;96853.78;;;18.78;59.58
13434;BME280;6789;47.678;9.158;2023-08-08T19:36:44;96860.75;;;18.69;60.54
13434;BME280;6789;47.678;9.158;2023-08-08T19:41:36;96856.28;;;18.60;60.59
13434;BME280;6789;47.678;9.158;2023-08-08T19:46:28;96847.00;;;18.48;61.32
13434;BME280;6789;47.678;9.158;2023-08-08T19:51:20;96857.66;;;18.43;61.47
13434;BME280;6789;47.678;9.158;2023-08-08T19:56:12;96857.66;;;18.33;61.50
13434;BME280;6789;47.678;9.158;2023-08-08T20:01:04;96857.69;;;18.23;60.61
13434;BME280;6789;47.678;9.158;2023-08-08T20:05:56;96859.28;;;18.19;60.81
13434;BME280;6789;47.678;9.158;2023-08-08T20:10:48;96856.34;;;18.15;61.16
13434;BME280;6789;47.678;9.158;2023-08-08T20:15:40;96847.06;;;18.13;61.07
13434;BME280;6789;47.678;9.158;2023-08-08T20:20:32;96842.56;;;18.08;62.21
13434;BME280;6789;47.678;9.158;2023-08-08T20:25:24;96850.28;;;18.20;62.21
13434;BME280;6789;47.678;9.158;2023-08-08T20:30:16;96844.41;;;18.18;63.80
13434;BME280;6789;47.678;9.158;2023-08-08T20:35:09;96847.34;;;18.01;64.75
13434;BME280;6789;47.678;9.158;2023-08-08T20:40:04;96852.91;;;18.00;64.57
13434;BME280;6789;47.678;9.158;2023-08-08T20:44:56;96859.28;;;17.84;65.79
13434;BME280;6789;47.678;9.158;2023-08-08T20:49:48;96858.78;;;17.82;65.52
13434;BME280;6789;47.678;9.158;2023-08-08T20:54:43;96861.94;;;17.64;66.59
13434;BME280;6789;47.678;9.158;2023-08-08T20:59:35;96855.56;;;17.50;67.15
13434;BME280;6789;47.678;9.158;2023-08-08T21:04:27;96849.97;;;17.37;67.89
13434;BME280;6789;47.678;9.158;2023-08-08T21:09:18;96850.75;;;17.27;68.17
13434;BME280;6789;47.678;9.158;2023-08-08T21:14:11;96852.59;;;17.17;69.57
13434;BME280;6789;47.678;9.158;2023-08-08T21:19:16;96853.59;;;17.06;71.09
13434;BME280;6789;47.678;9.158;2023-08-08T21:24:08;96853.03;;;16.99;72.28
13434;BME280;6789;47.678;9.158;2023-08-08T21:29:00;96855.69;;;16.94;71.76
13434;BME280;6789;47.678;9.158;2023-08-08T21:33:53;96851.16;;;16.85;73.32
13434;BME280;6789;47.678;9.158;2023-08-08T21:38:46;96850.88;;;16.81;73.60
13434;BME280;6789;47.678;9.158;2023-08-08T21:43:37;96847.16;;;16.77;73.50
13434;BME280;6789;47.678;9.158;2023-08-08T21:48:32;96838.91;;;16.69;74.10
13434;BME280;6789;47.678;9.158;2023-08-08T21:53:24;96838.09;;;16.63;75.09
13434;BME280;6789;47.678;9.158;2023-08-08T21:58:16;96834.88;;;16.56;76.17
13434;BME280;6789;47.678;9.158;2023-08-08T22:03:09;96847.03;;;16.47;76.53
13434;BME280;6789;47.678;9.158;2023-08-08T22:08:01;96843.56;;;16.42;78.01
13434;BME280;6789;47.678;9.158;2023-08-08T22:12:53;96844.28;;;16.33;78.44
13434;BME280;6789;47.678;9.158;2023-08-08T22:17:46;96836.88;;;16.30;79.22
13434;BME280;6789;47.678;9.158;2023-08-08T22:22:56;96841.13;;;16.31;79.65
13434;BME280;6789;47.678;9.158;2023-08-08T22:28:00;96839.81;;;16.33;80.86
13434;BME280;6789;47.678;9.158;2023-08-08T22:32:52;96835.84;;;16.36;80.81
13434;BME280;6789;47.678;9.158;2023-08-08T22:37:45;96833.72;;;16.38;80.68
13434;BME280;6789;47.678;9.158;2023-08-08T22:42:38;96832.47;;;16.45;80.19
13434;BME280;6789;47.678;9.158;2023-08-08T22:47:31;96833.78;;;16.47;80.27
13434;BME280;6789;47.678;9.158;2023-08-08T22:52:23;96835.63;;;16.47;80.99
13434;BME280;6789;47.678;9.158;2023-08-08T22:57:16;96827.97;;;16.50;79.51
13434;BME280;6789;47.678;9.158;2023-08-08T23:02:09;96821.41;;;16.58;78.31
13434;BME280;6789;47.678;9.158;2023-08-08T23:07:01;96820.06;;;16.55;80.99
13434;BME280;6789;47.678;9.158;2023-08-08T23:11:55;96826.41;;;16.54;81.75
13434;BME280;6789;47.678;9.158;2023-08-08T23:16:49;96819.25;;;16.55;82.36
13434;BME280;6789;47.678;9.158;2023-08-08T23:21:42;96815.00;;;16.49;82.42
13434;BME280;6789;47.678;9.158;2023-08-08T23:26:35;96819.25;;;16.50;81.21
13434;BME280;6789;47.678;9.158;2023-08-08T23:31:31;96810.75;;;16.53;80.93
13434;BME280;6789;47.678;9.158;2023-08-08T23:36:23;96799.91;;;16.49;81.68
13434;BME280;6789;47.678;9.158;2023-08-08T23:41:16;96789.84;;;16.51;81.64
13434;BME280;6789;47.678;9.158;2023-08-08T23:46:09;96798.59;;;16.52;82.08
13434;BME280;6789;47.678;9.158;2023-08-08T23:51:02;96793.56;;;16.50;80.99
13434;BME280;6789;47.678;9.158;2023-08-08T23:55:55;96797.03;;;16.56;81.32
